Time;durP1;ratioP1;P1;durP2;ratioP2;P2;SDS_P1;SDS_P2;PMS_P1;PMS_P2;Temp;Humidity;BMP_temperature;BMP_pressure;BME280_temperature;BME280_humidity;BME280_pressure;Samples;Min_cycle;Max_cycle;Signal;HPM_P1;HPM_P2
2022/06/08 00:02:28;;;;;;;3.42;2.50;;;;;;;;;;5110377;28;20136;-86
2022/06/08 00:04:53;;;;;;;4.65;2.70;;;;;;;;;;5110991;28;20019;-86
2022/06/08 00:07:18;;;;;;;2.90;2.13;;;;;;;;;;5093090;28;20027;-87
2022/06/08 00:09:44;;;;;;;3.17;2.53;;;;;;;;;;5112157;28;20042;-85
2022/06/08 00:12:10;;;;;;;2.65;2.17;;;;;;;;;;5091785;28;20064;-86
2022/06/08 00:14:36;;;;;;;2.92;2.20;;;;;;;;;;5109077;28;20040;-86
2022/06/08 00:17:01;;;;;;;2.65;2.03;;;;;;;;;;5110022;28;20035;-85
2022/06/08 00:19:27;;;;;;;2.85;2.25;;;;;;;;;;5111124;28;20035;-87
2022/06/08 00:21:53;;;;;;;3.08;2.42;;;;;;;;;;5109861;28;20027;-84
2022/06/08 00:24:19;;;;;;;3.35;2.42;;;;;;;;;;5092353;28;20050;-85
2022/06/08 00:26:44;;;;;;;3.58;2.53;;;;;;;;;;5111080;28;20070;-86
2022/06/08 00:29:10;;;;;;;2.67;2.17;;;;;;;;;;5108125;28;20483;-85
2022/06/08 00:31:35;;;;;;;2.90;2.13;;;;;;;;;;5094578;28;20085;-84
2022/06/08 00:34:01;;;;;;;2.67;2.10;;;;;;;;;;5091926;28;20028;-86
2022/06/08 00:36:26;;;;;;;2.80;1.90;;;;;;;;;;5104658;28;20082;-87
2022/06/08 00:38:52;;;;;;;2.53;2.00;;;;;;;;;;5092486;28;20024;-87
2022/06/08 00:41:26;;;;;;;3.88;2.20;;;;;;;;;;5101704;28;20020;-86
2022/06/08 00:43:52;;;;;;;3.05;2.33;;;;;;;;;;5092451;28;20024;-87
2022/06/08 00:46:18;;;;;;;3.85;2.22;;;;;;;;;;5110922;28;20019;-85
2022/06/08 00:48:58;;;;;;;2.90;2.50;;;;;;;;;;5111087;28;20111;-85
2022/06/08 00:51:24;;;;;;;3.50;2.50;;;;;;;;;;5104576;28;20020;-85
2022/06/08 00:53:55;;;;;;;2.58;2.17;;;;;;;;;;5103994;28;20072;-85
2022/06/08 00:56:25;;;;;;;4.72;2.75;;;;;;;;;;5101727;28;20409;-84
2022/06/08 00:58:51;;;;;;;4.22;2.50;;;;;;;;;;5107178;28;20786;-85
2022/06/08 01:01:17;;;;;;;3.15;2.10;;;;;;;;;;5111025;28;20027;-86
2022/06/08 01:03:43;;;;;;;2.97;2.50;;;;;;;;;;5092611;28;20391;-85
2022/06/08 01:06:18;;;;;;;4.03;2.20;;;;;;;;;;5093152;28;20080;-86
2022/06/08 01:08:44;;;;;;;3.17;2.33;;;;;;;;;;5107681;28;20035;-85
2022/06/08 01:11:16;;;;;;;3.45;2.70;;;;;;;;;;5107218;28;20367;-86
2022/06/08 01:13:42;;;;;;;2.67;2.13;;;;;;;;;;5092035;28;20115;-85
2022/06/08 01:16:10;;;;;;;3.05;2.40;;;;;;;;;;5103385;28;20063;-86
2022/06/08 01:18:36;;;;;;;2.92;2.10;;;;;;;;;;5105437;28;20828;-85
2022/06/08 01:21:20;;;;;;;3.03;2.50;;;;;;;;;;5107703;28;20144;-85
2022/06/08 01:23:47;;;;;;;2.67;2.15;;;;;;;;;;5092292;28;20055;-85
2022/06/08 01:26:19;;;;;;;3.63;2.40;;;;;;;;;;5108232;28;20376;-85
2022/06/08 01:29:17;;;;;;;2.95;2.42;;;;;;;;;;5108698;28;20468;-84
2022/06/08 01:31:51;;;;;;;2.67;1.95;;;;;;;;;;5093801;28;20035;-85
2022/06/08 01:34:47;;;;;;;2.65;2.00;;;;;;;;;;5085776;28;20114;-86
2022/06/08 01:37:31;;;;;;;2.80;2.25;;;;;;;;;;5094064;28;20075;-86
2022/06/08 01:40:24;;;;;;;3.90;2.03;;;;;;;;;;5091051;28;20468;-85
2022/06/08 01:42:52;;;;;;;2.90;2.15;;;;;;;;;;5101762;28;20515;-86
2022/06/08 01:45:55;;;;;;;2.67;2.13;;;;;;;;;;5082094;28;20020;-85
2022/06/08 01:48:58;;;;;;;5.10;2.53;;;;;;;;;;5097629;28;20030;-85
2022/06/08 01:51:43;;;;;;;1.98;1.63;;;;;;;;;;5109905;28;20051;-85
2022/06/08 01:54:44;;;;;;;4.80;2.17;;;;;;;;;;5110774;28;20026;-86
2022/06/08 01:57:29;;;;;;;3.67;1.90;;;;;;;;;;5053939;28;20036;-85
2022/06/08 02:00:16;;;;;;;3.03;2.17;;;;;;;;;;5080772;28;20383;-86
2022/06/08 02:03:30;;;;;;;2.58;1.85;;;;;;;;;;5099127;28;20028;-85
2022/06/08 02:06:08;;;;;;;3.58;2.03;;;;;;;;;;5109535;28;20030;-86
2022/06/08 02:08:58;;;;;;;2.97;1.90;;;;;;;;;;5110094;28;20491;-85
2022/06/08 02:11:27;;;;;;;2.22;1.90;;;;;;;;;;5109824;28;20379;-85
2022/06/08 02:14:16;;;;;;;3.58;1.80;;;;;;;;;;5111441;28;20463;-85
2022/06/08 02:16:49;;;;;;;2.57;2.00;;;;;;;;;;5110512;28;20077;-85
2022/06/08 02:19:23;;;;;;;2.17;1.73;;;;;;;;;;5113749;28;20063;-85
2022/06/08 02:22:10;;;;;;;3.58;1.88;;;;;;;;;;5114751;28;20031;-85
2022/06/08 02:25:10;;;;;;;4.05;2.10;;;;;;;;;;5114614;28;20019;-85
2022/06/08 02:27:40;;;;;;;;;;;;;;;;;;5114811;28;20425;-85
2022/06/08 02:30:17;;;;;;;2.40;2.00;;;;;;;;;;5114850;28;19912;-85
2022/06/08 02:35:41;;;;;;;2.70;1.80;;;;;;;;;;5111701;28;20089;-87
2022/06/08 02:38:10;;;;;;;2.10;1.80;;;;;;;;;;5101333;28;20020;-85
2022/06/08 02:40:40;;;;;;;2.78;1.90;;;;;;;;;;5100139;28;20031;-86
2022/06/08 02:43:11;;;;;;;2.47;1.85;;;;;;;;;;5084912;28;20043;-86
2022/06/08 02:45:41;;;;;;;2.88;2.10;;;;;;;;;;5107237;28;20027;-85
2022/06/08 02:48:09;;;;;;;2.20;1.90;;;;;;;;;;5085823;28;20552;-87
2022/06/08 02:50:36;;;;;;;4.15;1.70;;;;;;;;;;5103503;28;20028;-85
2022/06/08 02:53:16;;;;;;;2.70;1.90;;;;;;;;;;5088450;28;20035;-87
2022/06/08 02:56:19;;;;;;;2.25;2.00;;;;;;;;;;5086312;28;20035;-86
2022/06/08 02:58:48;;;;;;;2.58;1.70;;;;;;;;;;5088494;28;20042;-86
2022/06/08 03:01:35;;;;;;;2.40;1.98;;;;;;;;;;5107975;28;20438;-86
2022/06/08 03:04:06;;;;;;;4.47;2.00;;;;;;;;;;5082988;28;20019;-86
2022/06/08 03:06:41;;;;;;;2.40;1.63;;;;;;;;;;5101335;28;20089;-86
2022/06/08 03:09:11;;;;;;;3.80;1.55;;;;;;;;;;5102637;28;20855;-85
2022/06/08 03:11:43;;;;;;;2.13;1.75;;;;;;;;;;5090893;28;20030;-85
2022/06/08 03:14:12;;;;;;;3.95;1.95;;;;;;;;;;5105646;28;20036;-85
2022/06/08 03:16:40;;;;;;;2.85;1.95;;;;;;;;;;5100719;28;20036;-86
2022/06/08 03:19:07;;;;;;;3.38;2.20;;;;;;;;;;5080727;28;20114;-85
2022/06/08 03:21:34;;;;;;;2.35;1.88;;;;;;;;;;5111600;28;20027;-85
2022/06/08 03:23:59;;;;;;;4.13;2.50;;;;;;;;;;5109856;28;20039;-86
2022/06/08 03:26:26;;;;;;;3.65;2.30;;;;;;;;;;5093338;28;20490;-86
2022/06/08 03:28:52;;;;;;;2.67;2.22;;;;;;;;;;5109052;28;20464;-86
2022/06/08 03:31:17;;;;;;;3.17;2.53;;;;;;;;;;5093976;28;20047;-85
2022/06/08 03:33:43;;;;;;;5.85;2.33;;;;;;;;;;5112336;28;20114;-86
2022/06/08 03:36:08;;;;;;;3.70;2.50;;;;;;;;;;5094082;28;20046;-87
2022/06/08 03:38:34;;;;;;;3.97;2.13;;;;;;;;;;5112566;28;20523;-86
2022/06/08 03:41:00;;;;;;;3.33;2.40;;;;;;;;;;5112784;28;20490;-86
2022/06/08 03:43:25;;;;;;;5.05;2.88;;;;;;;;;;5108912;28;20031;-86
2022/06/08 03:45:55;;;;;;;3.22;2.63;;;;;;;;;;5112115;28;20028;-86
2022/06/08 03:48:21;;;;;;;4.57;2.75;;;;;;;;;;5111271;28;20459;-86
2022/06/08 03:50:50;;;;;;;3.92;3.00;;;;;;;;;;5111027;28;20034;-86
2022/06/08 03:53:21;;;;;;;4.88;3.45;;;;;;;;;;5105336;28;21441;-86
2022/06/08 03:55:49;;;;;;;5.65;3.10;;;;;;;;;;5109669;28;20032;-86
2022/06/08 03:58:16;;;;;;;3.95;3.17;;;;;;;;;;5109566;28;20023;-86
2022/06/08 04:00:41;;;;;;;3.63;2.78;;;;;;;;;;5111828;28;20031;-86
2022/06/08 04:03:09;;;;;;;5.45;3.03;;;;;;;;;;5112386;28;20107;-85
2022/06/08 04:05:35;;;;;;;4.53;2.80;;;;;;;;;;5111414;28;20414;-86
2022/06/08 04:08:01;;;;;;;3.33;2.65;;;;;;;;;;5112018;28;20077;-87
2022/06/08 04:10:26;;;;;;;3.95;2.95;;;;;;;;;;5093778;28;20043;-87
2022/06/08 04:12:52;;;;;;;4.85;3.03;;;;;;;;;;5107371;28;20035;-86
2022/06/08 04:18:02;;;;;;;4.75;3.10;;;;;;;;;;5111014;28;20388;-84
2022/06/08 04:20:28;;;;;;;4.53;2.78;;;;;;;;;;5109200;28;20444;-86
2022/06/08 04:22:54;;;;;;;4.65;3.22;;;;;;;;;;5111515;28;20107;-84
2022/06/08 04:25:19;;;;;;;4.28;2.88;;;;;;;;;;5111722;28;20020;-86
2022/06/08 04:27:44;;;;;;;4.95;2.95;;;;;;;;;;5111720;28;20027;-86
2022/06/08 04:30:11;;;;;;;4.18;2.80;;;;;;;;;;5093003;28;20081;-85
2022/06/08 04:32:36;;;;;;;3.50;2.40;;;;;;;;;;5111293;28;20027;-86
2022/06/08 04:35:03;;;;;;;4.05;3.05;;;;;;;;;;5092929;28;20084;-85
2022/06/08 04:37:29;;;;;;;6.93;3.22;;;;;;;;;;5093264;28;20046;-85
2022/06/08 04:39:55;;;;;;;3.38;2.95;;;;;;;;;;5110868;28;20024;-85
2022/06/08 04:42:20;;;;;;;6.05;3.67;;;;;;;;;;5108767;28;20027;-85
2022/06/08 04:44:45;;;;;;;4.18;3.58;;;;;;;;;;5108568;28;20475;-85
2022/06/08 04:47:11;;;;;;;5.13;3.60;;;;;;;;;;5104783;28;20516;-85
2022/06/08 04:49:38;;;;;;;3.97;3.40;;;;;;;;;;5092965;28;20027;-86
2022/06/08 04:52:05;;;;;;;5.63;3.58;;;;;;;;;;5110853;28;20027;-85
2022/06/08 04:54:31;;;;;;;5.20;3.47;;;;;;;;;;5111126;28;20034;-85
2022/06/08 04:56:57;;;;;;;4.60;3.80;;;;;;;;;;5092336;28;20387;-85
2022/06/08 04:59:22;;;;;;;10.75;3.80;;;;;;;;;;5091891;28;20034;-85
2022/06/08 05:01:48;;;;;;;4.38;3.72;;;;;;;;;;5109096;28;20043;-85
2022/06/08 05:04:13;;;;;;;7.13;3.83;;;;;;;;;;5110674;28;20088;-85
2022/06/08 05:06:39;;;;;;;6.97;4.68;;;;;;;;;;5091509;28;20123;-86
2022/06/08 05:09:05;;;;;;;6.53;4.50;;;;;;;;;;5110483;28;20024;-85
2022/06/08 05:11:30;;;;;;;8.00;4.68;;;;;;;;;;5092404;28;20027;-85
2022/06/08 05:13:56;;;;;;;9.00;7.15;;;;;;;;;;5107163;28;20160;-84
2022/06/08 05:16:21;;;;;;;11.65;7.43;;;;;;;;;;5091512;28;20030;-84
2022/06/08 05:18:47;;;;;;;10.65;6.93;;;;;;;;;;5089192;28;20054;-83
2022/06/08 05:21:12;;;;;;;16.00;8.23;;;;;;;;;;5110264;28;20023;-85
2022/06/08 05:23:39;;;;;;;9.20;7.50;;;;;;;;;;5108661;28;20039;-83
2022/06/08 05:26:05;;;;;;;6.95;5.40;;;;;;;;;;5109982;28;20019;-84
2022/06/08 05:28:31;;;;;;;15.18;9.25;;;;;;;;;;5109043;28;20464;-83
2022/06/08 05:30:57;;;;;;;6.53;5.50;;;;;;;;;;5108340;28;20058;-83
2022/06/08 05:33:24;;;;;;;12.02;8.18;;;;;;;;;;5090524;28;20467;-85
2022/06/08 05:35:50;;;;;;;9.55;6.93;;;;;;;;;;5110854;28;20036;-85
2022/06/08 05:38:16;;;;;;;14.25;8.80;;;;;;;;;;5108271;28;20386;-84
2022/06/08 05:40:41;;;;;;;10.43;6.30;;;;;;;;;;5108998;28;20028;-85
2022/06/08 05:43:10;;;;;;;8.18;5.50;;;;;;;;;;5091860;28;20015;-86
2022/06/08 05:45:35;;;;;;;13.70;6.47;;;;;;;;;;5091604;28;20020;-84
2022/06/08 05:48:01;;;;;;;8.73;6.32;;;;;;;;;;5110836;28;20020;-86
2022/06/08 05:50:28;;;;;;;16.35;11.07;;;;;;;;;;5109854;28;20386;-87
2022/06/08 05:52:54;;;;;;;20.17;11.70;;;;;;;;;;5112369;28;20032;-85
2022/06/08 05:55:22;;;;;;;11.50;7.15;;;;;;;;;;5115003;28;20461;-86
2022/06/08 05:57:48;;;;;;;9.55;6.07;;;;;;;;;;5117143;28;20039;-87
2022/06/08 06:00:22;;;;;;;6.97;5.45;;;;;;;;;;5117028;28;20506;-84
2022/06/08 06:02:48;;;;;;;5.50;4.30;;;;;;;;;;5115285;28;20474;-86
2022/06/08 06:05:17;;;;;;;6.90;4.40;;;;;;;;;;5120443;28;20023;-84
2022/06/08 06:07:43;;;;;;;10.52;6.15;;;;;;;;;;5097469;28;20125;-85
2022/06/08 06:10:10;;;;;;;7.53;3.67;;;;;;;;;;5115402;28;20057;-86
2022/06/08 06:12:36;;;;;;;5.93;3.20;;;;;;;;;;5091925;28;20030;-85
2022/06/08 06:15:01;;;;;;;4.22;2.90;;;;;;;;;;5114335;27;20031;-86
2022/06/08 06:17:28;;;;;;;3.45;2.63;;;;;;;;;;5113006;27;20016;-85
2022/06/08 06:19:55;;;;;;;15.80;9.00;;;;;;;;;;5095694;28;20024;-87
2022/06/08 06:22:20;;;;;;;10.85;6.03;;;;;;;;;;5114140;28;20482;-86
2022/06/08 06:24:46;;;;;;;12.98;8.57;;;;;;;;;;5093869;28;20062;-85
2022/06/08 06:27:11;;;;;;;12.73;7.50;;;;;;;;;;5111382;28;20028;-83
2022/06/08 06:29:37;;;;;;;20.48;11.57;;;;;;;;;;5111658;28;20027;-84
2022/06/08 06:32:05;;;;;;;14.05;7.88;;;;;;;;;;5112884;28;20015;-84
2022/06/08 06:34:31;;;;;;;7.25;4.97;;;;;;;;;;5113514;27;20032;-84
2022/06/08 06:36:58;;;;;;;7.35;4.40;;;;;;;;;;5112187;28;20857;-84
2022/06/08 06:39:28;;;;;;;6.10;3.70;;;;;;;;;;5113151;28;20034;-84
2022/06/08 06:41:55;;;;;;;4.63;2.60;;;;;;;;;;5111708;28;20028;-83
2022/06/08 06:44:21;;;;;;;5.90;2.45;;;;;;;;;;5092136;28;20125;-85
2022/06/08 06:46:46;;;;;;;5.43;2.70;;;;;;;;;;5113389;28;20110;-85
2022/06/08 06:49:12;;;;;;;3.65;2.10;;;;;;;;;;5109320;28;20108;-85
2022/06/08 06:51:38;;;;;;;2.28;1.90;;;;;;;;;;5093219;28;20058;-84
2022/06/08 06:54:06;;;;;;;2.80;2.10;;;;;;;;;;5106845;28;20483;-83
2022/06/08 06:56:32;;;;;;;5.95;2.30;;;;;;;;;;5107724;27;20038;-85
2022/06/08 06:58:59;;;;;;;4.50;2.10;;;;;;;;;;5110745;28;20035;-87
2022/06/08 07:01:24;;;;;;;2.25;1.90;;;;;;;;;;5093323;28;20020;-84
2022/06/08 07:03:49;;;;;;;4.78;2.50;;;;;;;;;;5112364;28;20076;-85
2022/06/08 07:06:15;;;;;;;3.33;2.08;;;;;;;;;;5092140;28;20015;-87
2022/06/08 07:08:40;;;;;;;5.65;2.58;;;;;;;;;;5095387;28;20399;-85
2022/06/08 07:13:51;;;;;;;11.65;2.40;;;;;;;;;;5110785;28;20080;-85
2022/06/08 07:16:16;;;;;;;2.83;2.28;;;;;;;;;;5108894;28;20527;-86
2022/06/08 07:18:42;;;;;;;3.80;2.25;;;;;;;;;;5092504;28;20032;-86
2022/06/08 07:21:10;;;;;;;3.38;2.10;;;;;;;;;;5096043;28;20081;-86
2022/06/08 07:23:35;;;;;;;5.80;2.60;;;;;;;;;;5112393;28;20031;-87
2022/06/08 07:26:00;;;;;;;3.15;2.30;;;;;;;;;;5111360;28;20460;-83
2022/06/08 07:28:27;;;;;;;3.50;2.42;;;;;;;;;;5112560;28;20027;-81
2022/06/08 07:30:52;;;;;;;5.97;2.35;;;;;;;;;;5091257;28;20035;-82
2022/06/08 07:33:19;;;;;;;2.97;2.33;;;;;;;;;;5086455;28;20028;-82
2022/06/08 07:35:45;;;;;;;2.45;2.13;;;;;;;;;;5089308;28;20149;-82
2022/06/08 07:38:11;;;;;;;7.53;5.22;;;;;;;;;;5093438;28;20026;-82
2022/06/08 07:40:36;;;;;;;23.48;19.08;;;;;;;;;;5109850;28;20019;-83
2022/06/08 07:43:02;;;;;;;7.57;6.43;;;;;;;;;;5108400;28;20475;-83
2022/06/08 07:45:29;;;;;;;3.88;2.22;;;;;;;;;;5106256;28;20041;-85
2022/06/08 07:50:40;;;;;;;7.43;2.65;;;;;;;;;;5110670;28;20042;-84
2022/06/08 07:53:06;;;;;;;4.15;2.25;;;;;;;;;;5106486;28;20027;-85
2022/06/08 07:55:31;;;;;;;3.75;2.60;;;;;;;;;;5112098;28;20023;-84
2022/06/08 07:57:57;;;;;;;2.90;2.50;;;;;;;;;;5107319;28;20030;-84
2022/06/08 08:00:22;;;;;;;3.22;2.53;;;;;;;;;;5109111;28;20057;-85
2022/06/08 08:02:48;;;;;;;4.75;2.97;;;;;;;;;;5105219;28;20035;-84
2022/06/08 08:05:15;;;;;;;5.72;2.72;;;;;;;;;;5107829;28;20024;-85
2022/06/08 08:07:42;;;;;;;4.22;2.90;;;;;;;;;;5106477;28;20024;-84
2022/06/08 08:10:13;;;;;;;5.53;2.90;;;;;;;;;;5091878;28;20733;-84
2022/06/08 08:12:38;;;;;;;4.03;3.13;;;;;;;;;;5101289;28;20027;-85
2022/06/08 08:15:05;;;;;;;4.07;3.13;;;;;;;;;;5101723;28;20069;-84
2022/06/08 08:17:31;;;;;;;7.35;3.13;;;;;;;;;;5104358;28;20028;-84
2022/06/08 08:19:56;;;;;;;4.32;3.33;;;;;;;;;;5109280;28;20072;-84
2022/06/08 08:22:21;;;;;;;6.78;3.15;;;;;;;;;;5108133;28;20016;-85
2022/06/08 08:24:48;;;;;;;4.85;3.25;;;;;;;;;;5107047;28;20058;-83
2022/06/08 08:27:13;;;;;;;6.75;3.33;;;;;;;;;;5111716;28;20107;-84
2022/06/08 08:29:39;;;;;;;9.63;3.45;;;;;;;;;;5104341;28;20527;-83
2022/06/08 08:32:07;;;;;;;7.88;4.00;;;;;;;;;;5092054;28;20380;-85
2022/06/08 08:34:32;;;;;;;8.98;3.35;;;;;;;;;;5090230;28;20042;-84
2022/06/08 08:36:58;;;;;;;6.47;2.97;;;;;;;;;;5110784;28;20055;-84
2022/06/08 08:39:24;;;;;;;4.70;3.22;;;;;;;;;;5109924;28;20055;-83
2022/06/08 08:45:02;;;;;;;4.70;3.10;;;;;;;;;;5108250;28;20054;-85
2022/06/08 08:47:32;;;;;;;3.53;2.80;;;;;;;;;;5104547;28;20062;-85
2022/06/08 08:50:14;;;;;;;;;;;;;;;;;;5107829;28;20024;-85
2022/06/08 08:52:46;;;;;;;4.97;3.28;;;;;;;;;;5110106;28;20363;-85
2022/06/08 08:55:39;;;;;;;5.22;2.92;;;;;;;;;;5109817;28;20026;-87
2022/06/08 08:58:14;;;;;;;2.47;2.10;;;;;;;;;;5107685;28;20468;-87
2022/06/08 09:00:53;;;;;;;4.90;3.20;;;;;;;;;;5108821;28;20459;-86
2022/06/08 09:03:31;;;;;;;4.27;3.13;;;;;;;;;;5107536;28;20023;-85
2022/06/08 09:06:09;;;;;;;5.10;3.00;;;;;;;;;;5086130;28;20470;-84
2022/06/08 09:08:34;;;;;;;4.68;2.50;;;;;;;;;;5088403;28;20039;-84
2022/06/08 09:11:01;;;;;;;5.25;3.67;;;;;;;;;;5109279;28;20066;-84
2022/06/08 09:13:50;;;;;;;7.80;4.93;;;;;;;;;;5093387;28;20479;-85
2022/06/08 09:16:28;;;;;;;5.38;2.65;;;;;;;;;;5093520;28;20063;-85
2022/06/08 09:18:53;;;;;;;3.38;2.63;;;;;;;;;;5092356;28;20028;-84
2022/06/08 09:21:24;;;;;;;7.90;3.78;;;;;;;;;;5108978;28;20060;-85
2022/06/08 09:23:52;;;;;;;6.90;3.10;;;;;;;;;;5107976;28;20465;-81
2022/06/08 09:26:23;;;;;;;3.53;2.40;;;;;;;;;;5111427;28;20267;-79
2022/06/08 09:29:17;;;;;;;5.82;2.67;;;;;;;;;;5120187;27;20747;-82
2022/06/08 09:31:43;;;;;;;4.10;2.72;;;;;;;;;;5110874;28;20032;-81
2022/06/08 09:34:24;;;;;;;8.25;5.70;;;;;;;;;;5114275;27;20085;-84
2022/06/08 09:37:20;;;;;;;2.78;2.03;;;;;;;;;;5130564;27;20082;-85
2022/06/08 09:39:47;;;;;;;3.58;2.08;;;;;;;;;;5113346;28;20031;-85
2022/06/08 09:42:29;;;;;;;7.60;2.40;;;;;;;;;;5117619;28;20146;-86
2022/06/08 09:45:01;;;;;;;4.05;2.53;;;;;;;;;;5111421;27;20024;-84
2022/06/08 09:53:49;;;;;;;4.50;2.03;;;;;;;;;;5116135;28;20149;-85
2022/06/08 09:56:31;;;;;;;7.07;3.28;;;;;;;;;;5097627;28;20024;-86
2022/06/08 09:59:19;;;;;;;3.53;2.10;;;;;;;;;;5115794;27;20491;-86
2022/06/08 10:02:32;;;;;;;4.75;1.85;;;;;;;;;;5114248;28;20083;-84
2022/06/08 10:05:03;;;;;;;5.35;2.78;;;;;;;;;;5083115;28;20051;-84
2022/06/08 10:07:51;;;;;;;5.13;3.58;;;;;;;;;;5090229;28;20055;-85
2022/06/08 10:10:41;;;;;;;3.75;1.65;;;;;;;;;;5095859;28;20058;-86
2022/06/08 10:13:31;;;;;;;6.45;2.15;;;;;;;;;;5114883;28;20503;-85
2022/06/08 10:16:19;;;;;;;6.60;2.05;;;;;;;;;;5113195;28;20020;-84
2022/06/08 10:18:56;;;;;;;4.35;1.90;;;;;;;;;;5113742;28;20539;-86
2022/06/08 10:21:31;;;;;;;4.05;2.15;;;;;;;;;;5116190;28;20352;-85
2022/06/08 10:24:22;;;;;;;3.70;1.58;;;;;;;;;;5096329;28;20026;-87
2022/06/08 10:26:52;;;;;;;3.28;1.50;;;;;;;;;;5097788;28;20035;-88
2022/06/08 10:29:33;;;;;;;3.47;1.67;;;;;;;;;;5116019;28;20035;-87
2022/06/08 10:32:25;;;;;;;2.60;1.70;;;;;;;;;;5100024;28;20046;-85
2022/06/08 10:34:54;;;;;;;2.75;1.30;;;;;;;;;;5108311;28;20040;-85
2022/06/08 10:37:39;;;;;;;2.10;1.42;;;;;;;;;;5113077;28;20034;-85
2022/06/08 10:40:13;;;;;;;2.20;1.70;;;;;;;;;;5100850;28;20028;-88
2022/06/08 10:42:46;;;;;;;3.63;1.38;;;;;;;;;;5106166;28;20027;-85
2022/06/08 10:45:21;;;;;;;4.35;1.42;;;;;;;;;;5084805;28;20026;-85
2022/06/08 10:48:25;;;;;;;2.22;1.30;;;;;;;;;;5106627;28;20032;-85
2022/06/08 10:51:09;;;;;;;2.42;1.67;;;;;;;;;;5103350;28;20027;-85
2022/06/08 10:56:35;;;;;;;7.60;2.05;;;;;;;;;;5106604;28;20034;-85
2022/06/08 10:59:08;;;;;;;4.80;1.63;;;;;;;;;;5090031;28;20024;-84
2022/06/08 11:01:55;;;;;;;3.80;2.05;;;;;;;;;;5084974;28;20494;-85
2022/06/08 11:04:27;;;;;;;3.78;1.92;;;;;;;;;;5094822;28;20027;-85
2022/06/08 11:06:57;;;;;;;5.95;1.75;;;;;;;;;;5106009;28;20028;-85
2022/06/08 11:09:32;;;;;;;4.35;1.80;;;;;;;;;;5095513;28;20467;-85
2022/06/08 11:12:03;;;;;;;2.75;1.58;;;;;;;;;;5105206;28;20035;-84
2022/06/08 11:14:30;;;;;;;3.30;1.58;;;;;;;;;;5110198;28;20046;-85
2022/06/08 11:17:02;;;;;;;1.92;1.60;;;;;;;;;;5085344;28;20027;-86
2022/06/08 11:19:29;;;;;;;3.50;1.63;;;;;;;;;;5102803;28;20074;-86
2022/06/08 11:21:58;;;;;;;3.53;1.73;;;;;;;;;;5102965;28;20019;-85
2022/06/08 11:24:36;;;;;;;4.32;1.80;;;;;;;;;;5104709;28;20091;-86
2022/06/08 11:27:11;;;;;;;6.35;1.92;;;;;;;;;;5085417;28;20474;-86
2022/06/08 11:29:45;;;;;;;4.40;1.90;;;;;;;;;;5105136;28;20015;-86
2022/06/08 11:32:57;;;;;;;2.50;1.67;;;;;;;;;;5110086;28;20024;-86
2022/06/08 11:35:46;;;;;;;2.97;1.90;;;;;;;;;;5092248;28;20061;-84
2022/06/08 11:38:30;;;;;;;3.60;2.13;;;;;;;;;;5107663;28;20027;-85
2022/06/08 11:41:36;;;;;;;1.88;1.60;;;;;;;;;;5097248;28;20039;-87
2022/06/08 11:44:30;;;;;;;3.03;1.77;;;;;;;;;;5041704;28;20087;-84
2022/06/08 11:47:21;;;;;;;4.80;1.90;;;;;;;;;;5108459;28;20019;-85
2022/06/08 11:50:01;;;;;;;4.13;2.67;;;;;;;;;;5091192;28;20035;-85
2022/06/08 11:52:31;;;;;;;2.42;1.77;;;;;;;;;;5106163;28;20027;-84
2022/06/08 11:55:13;;;;;;;3.70;1.77;;;;;;;;;;5108238;28;20031;-87
2022/06/08 11:57:49;;;;;;;2.75;2.00;;;;;;;;;;5102919;28;20032;-85
2022/06/08 12:00:23;;;;;;;5.32;2.53;;;;;;;;;;5106556;28;20040;-85
2022/06/08 12:02:55;;;;;;;3.08;2.13;;;;;;;;;;5101473;28;20479;-83
2022/06/08 12:05:23;;;;;;;3.60;2.10;;;;;;;;;;5107553;28;20031;-86
2022/06/08 12:08:01;;;;;;;3.78;1.63;;;;;;;;;;5103018;28;20032;-85
2022/06/08 12:10:32;;;;;;;4.47;2.00;;;;;;;;;;5106282;28;20038;-84
2022/06/08 12:12:58;;;;;;;4.72;3.10;;;;;;;;;;5108020;28;20475;-85
2022/06/08 12:15:44;;;;;;;3.35;2.00;;;;;;;;;;5108186;28;20028;-85
2022/06/08 12:18:25;;;;;;;5.03;3.28;;;;;;;;;;5088364;28;20028;-85
2022/06/08 12:21:21;;;;;;;3.70;1.77;;;;;;;;;;5113404;28;20443;-83
2022/06/08 12:24:04;;;;;;;3.42;2.05;;;;;;;;;;5095649;28;20039;-84
2022/06/08 12:26:40;;;;;;;2.72;1.98;;;;;;;;;;5104866;28;20027;-85
2022/06/08 12:29:20;;;;;;;2.22;1.83;;;;;;;;;;5090749;28;20032;-86
2022/06/08 12:31:47;;;;;;;2.83;1.88;;;;;;;;;;5107344;28;21088;-84
2022/06/08 12:34:49;;;;;;;2.00;1.77;;;;;;;;;;5092792;28;20027;-84
2022/06/08 12:37:45;;;;;;;4.15;2.00;;;;;;;;;;5107625;28;20495;-82
2022/06/08 12:40:16;;;;;;;7.85;2.58;;;;;;;;;;5107180;28;20474;-83
2022/06/08 12:42:57;;;;;;;3.72;2.17;;;;;;;;;;5108897;28;20028;-84
2022/06/08 12:45:33;;;;;;;3.47;1.92;;;;;;;;;;5109659;28;20026;-84
2022/06/08 12:48:19;;;;;;;3.80;2.10;;;;;;;;;;5106876;28;20030;-85
2022/06/08 12:50:44;;;;;;;2.88;2.15;;;;;;;;;;5091297;28;20031;-85
2022/06/08 12:53:10;;;;;;;5.07;2.17;;;;;;;;;;5107589;28;20031;-85
2022/06/08 12:55:40;;;;;;;3.72;2.17;;;;;;;;;;5108959;28;20026;-84
2022/06/08 12:58:07;;;;;;;2.90;1.70;;;;;;;;;;5108041;28;20038;-85
2022/06/08 13:00:36;;;;;;;2.85;1.90;;;;;;;;;;5108135;28;20493;-85
2022/06/08 13:03:15;;;;;;;3.92;1.90;;;;;;;;;;5108367;28;20070;-84
2022/06/08 13:05:41;;;;;;;2.25;1.83;;;;;;;;;;5110940;28;20136;-86
2022/06/08 13:08:07;;;;;;;2.80;2.15;;;;;;;;;;5111685;28;20028;-87
2022/06/08 13:10:33;;;;;;;3.95;1.73;;;;;;;;;;5111520;28;20038;-86
2022/06/08 13:13:03;;;;;;;3.38;2.40;;;;;;;;;;5112546;28;20042;-86
2022/06/08 13:15:39;;;;;;;3.92;1.90;;;;;;;;;;5110687;28;20068;-85
2022/06/08 13:18:06;;;;;;;2.55;1.98;;;;;;;;;;5106598;28;20032;-86
2022/06/08 13:20:35;;;;;;;2.85;1.80;;;;;;;;;;5108549;28;20038;-83
2022/06/08 13:23:02;;;;;;;2.65;2.13;;;;;;;;;;5109628;28;20501;-85
2022/06/08 13:25:28;;;;;;;1.90;1.70;;;;;;;;;;5111586;28;20015;-85
2022/06/08 13:27:55;;;;;;;3.15;2.20;;;;;;;;;;5104639;28;20095;-85
2022/06/08 13:30:24;;;;;;;3.42;2.30;;;;;;;;;;5105850;28;20023;-86
2022/06/08 13:32:51;;;;;;;3.17;2.05;;;;;;;;;;5110570;28;20078;-84
2022/06/08 13:35:18;;;;;;;4.60;2.13;;;;;;;;;;5105417;28;20106;-85
2022/06/08 13:37:45;;;;;;;7.10;2.30;;;;;;;;;;5109897;28;20027;-84
2022/06/08 13:40:16;;;;;;;7.30;2.42;;;;;;;;;;5108600;28;20096;-85
2022/06/08 13:42:44;;;;;;;3.63;1.98;;;;;;;;;;5111043;28;20023;-85
2022/06/08 13:45:16;;;;;;;3.20;1.67;;;;;;;;;;5108067;28;20103;-83
2022/06/08 13:47:44;;;;;;;2.67;1.73;;;;;;;;;;5117020;28;20027;-84
2022/06/08 13:50:12;;;;;;;1.83;1.50;;;;;;;;;;5106394;28;20027;-85
2022/06/08 13:52:40;;;;;;;3.45;2.20;;;;;;;;;;5092045;28;20019;-84
2022/06/08 13:55:23;;;;;;;5.83;2.20;;;;;;;;;;5107249;28;20031;-82
2022/06/08 13:57:50;;;;;;;3.00;1.85;;;;;;;;;;5109452;28;20023;-83
2022/06/08 14:00:16;;;;;;;5.40;1.90;;;;;;;;;;5108478;28;20582;-82
2022/06/08 14:02:44;;;;;;;2.10;1.58;;;;;;;;;;5110398;28;20039;-85
2022/06/08 14:05:15;;;;;;;2.60;1.70;;;;;;;;;;5107558;28;20026;-83
2022/06/08 14:13:26;;;;;;;2.53;1.48;;;;;;;;;;5109788;28;20035;-84
2022/06/08 14:15:55;;;;;;;1.93;1.50;;;;;;;;;;5114198;28;20035;-84
2022/06/08 14:18:24;;;;;;;2.50;1.45;;;;;;;;;;5095967;28;20416;-83
2022/06/08 14:20:51;;;;;;;1.85;1.60;;;;;;;;;;5112494;28;20043;-83
2022/06/08 14:23:18;;;;;;;2.97;2.00;;;;;;;;;;5112007;28;20027;-83
2022/06/08 14:25:45;;;;;;;3.47;1.95;;;;;;;;;;5108926;28;20035;-84
2022/06/08 14:28:11;;;;;;;2.38;1.40;;;;;;;;;;5111717;28;20042;-82
2022/06/08 14:30:39;;;;;;;1.52;1.40;;;;;;;;;;5113473;27;20051;-84
2022/06/08 14:33:16;;;;;;;2.97;1.65;;;;;;;;;;5116958;27;20091;-83
2022/06/08 14:35:43;;;;;;;2.63;1.60;;;;;;;;;;5111272;28;20670;-85
2022/06/08 14:38:14;;;;;;;2.58;1.48;;;;;;;;;;5094250;28;20057;-85
2022/06/08 14:40:41;;;;;;;4.55;1.67;;;;;;;;;;5114540;28;20459;-87
2022/06/08 14:43:07;;;;;;;5.28;2.00;;;;;;;;;;5095011;28;20020;-85
2022/06/08 14:45:39;;;;;;;1.95;1.60;;;;;;;;;;5113277;28;20365;-87
2022/06/08 14:48:36;;;;;;;2.30;1.63;;;;;;;;;;5112570;28;20388;-86
2022/06/08 14:51:02;;;;;;;2.25;1.73;;;;;;;;;;5106865;28;20100;-83
2022/06/08 14:53:28;;;;;;;4.07;2.38;;;;;;;;;;5092995;28;20036;-83
2022/06/08 14:58:39;;;;;;;2.05;1.63;;;;;;;;;;5109713;28;20065;-83
2022/06/08 15:01:06;;;;;;;2.65;1.67;;;;;;;;;;5112431;28;20447;-84
2022/06/08 15:03:32;;;;;;;4.38;1.80;;;;;;;;;;5113849;28;20031;-85
2022/06/08 15:06:00;;;;;;;2.33;1.60;;;;;;;;;;5113232;28;20073;-85
2022/06/08 15:08:26;;;;;;;7.27;2.00;;;;;;;;;;5093518;28;20023;-87
2022/06/08 15:13:41;;;;;;;3.72;1.67;;;;;;;;;;5112181;28;20440;-83
2022/06/08 15:16:10;;;;;;;5.57;3.03;;;;;;;;;;5113160;28;20036;-85
2022/06/08 15:18:37;;;;;;;8.57;3.22;;;;;;;;;;5107597;28;20049;-82
2022/06/08 15:21:04;;;;;;;4.72;3.13;;;;;;;;;;5111995;28;20715;-84
2022/06/08 15:23:29;;;;;;;5.63;4.65;;;;;;;;;;5112176;28;20027;-83
2022/06/08 15:25:56;;;;;;;5.93;4.57;;;;;;;;;;5112186;28;20012;-84
2022/06/08 15:28:25;;;;;;;9.35;5.70;;;;;;;;;;5095837;28;20047;-86
2022/06/08 15:30:51;;;;;;;7.88;5.38;;;;;;;;;;5114446;28;20035;-86
2022/06/08 15:33:19;;;;;;;8.85;5.35;;;;;;;;;;5110117;28;20040;-85
2022/06/08 15:36:10;;;;;;;8.02;6.15;;;;;;;;;;5114177;28;20085;-83
2022/06/08 15:38:55;;;;;;;9.32;6.13;;;;;;;;;;5112357;28;20024;-84
2022/06/08 15:41:23;;;;;;;6.07;5.28;;;;;;;;;;5095730;28;20059;-84
2022/06/08 15:43:49;;;;;;;8.13;6.28;;;;;;;;;;5112751;28;20032;-84
2022/06/08 15:46:17;;;;;;;7.93;6.50;;;;;;;;;;5111109;28;20024;-85